KRNO/RNO METAR and TAF weather

Enter ICAO airport designator
Station Type Date Time Source
KRNO METAR 2022/07/01 00:55 UTC NOAA

KRNO 010055Z 28017KT 10SM CLR 31/M01 A3003 RMK AO2 PK WND 29026/2357 SLP113 T03061011


Station Type Date Time Source
KRNO Decoded METAR 2022/07/01 00:55 UTC NOAA

RENO/TAHOE INTERNATIONAL AIRPORT, NV, United States (KRNO) 39-29N 119-46W 1342M
Jun 30, 2022 - 08:55 PM EDT / 2022.07.01 0055 UTC
Wind: from the W (280 degrees) at 20 MPH (17 KT):0
Visibility: 10 mile(s):0
Sky conditions: clear
Temperature: 87.1 F (30.6 C)
Dew Point: 30.0 F (-1.1 C)
Relative Humidity: 12%
Pressure (altimeter): 30.03 in. Hg (1016 hPa)
ob: KRNO 010055Z 28017KT 10SM CLR 31/M01 A3003 RMK AO2 PK WND 29026/2357 SLP113 T03061011
cycle: 1

Station Type Date Time Source
KRNO TAF 2022/06/30 18:22 UTC NOAA

TAF KRNO 301720Z 3018/0118 VRB04KT P6SM SKC
FM302000 25016G26KT P6SM SKC
FM010400 VRB04KT P6SM SKC

Example: see airport list